METAR Data
IDs: Format: Raw Decoded Include TAF

Data at: 1420 UTC 27 Nov 2021

RJCH 271100Z 33003KT 280V090 9999 -SHRA FEW015 SCT025 BKN040 03/01 Q1023